sensor_id;sensor_type;location;lat;lon;timestamp;temperature;humidity
3275;DHT22;1649;53.672;10.064;2024-01-16T00:00:33;-0.40;99.90
3275;DHT22;1649;53.672;10.064;2024-01-16T00:02:59;-0.40;99.90
3275;DHT22;1649;53.672;10.064;2024-01-16T00:05:24;-0.40;99.90
3275;DHT22;1649;53.672;10.064;2024-01-16T00:07:50;-0.40;99.90
3275;DHT22;1649;53.672;10.064;2024-01-16T00:10:15;-0.40;99.90
3275;DHT22;1649;53.672;10.064;2024-01-16T00:12:41;-0.60;99.90
3275;DHT22;1649;53.672;10.064;2024-01-16T00:15:07;-0.50;99.90
3275;DHT22;1649;53.672;10.064;2024-01-16T00:17:33;-0.50;99.90
3275;DHT22;1649;53.672;10.064;2024-01-16T00:19:58;-0.60;99.90
3275;DHT22;1649;53.672;10.064;2024-01-16T00:22:27;-0.60;99.90
3275;DHT22;1649;53.672;10.064;2024-01-16T00:24:53;-0.50;99.90
3275;DHT22;1649;53.672;10.064;2024-01-16T00:27:18;-0.50;99.90
3275;DHT22;1649;53.672;10.064;2024-01-16T00:29:44;-0.50;99.90
3275;DHT22;1649;53.672;10.064;2024-01-16T00:32:09;-0.60;99.90
3275;DHT22;1649;53.672;10.064;2024-01-16T00:34:35;-0.50;99.90
3275;DHT22;1649;53.672;10.064;2024-01-16T00:37:00;-0.50;99.90
3275;DHT22;1649;53.672;10.064;2024-01-16T00:39:26;-0.50;99.90
3275;DHT22;1649;53.672;10.064;2024-01-16T00:41:51;-0.50;99.90
3275;DHT22;1649;53.672;10.064;2024-01-16T00:44:17;-0.50;99.90
3275;DHT22;1649;53.672;10.064;2024-01-16T00:46:42;-0.60;99.90
3275;DHT22;1649;53.672;10.064;2024-01-16T00:49:08;-0.50;99.90
3275;DHT22;1649;53.672;10.064;2024-01-16T00:51:33;-0.60;99.90
3275;DHT22;1649;53.672;10.064;2024-01-16T00:53:59;-0.70;99.90
3275;DHT22;1649;53.672;10.064;2024-01-16T00:56:24;-0.60;99.90
3275;DHT22;1649;53.672;10.064;2024-01-16T00:58:53;-0.50;99.90
3275;DHT22;1649;53.672;10.064;2024-01-16T01:01:19;-0.60;99.90
3275;DHT22;1649;53.672;10.064;2024-01-16T01:03:45;-0.60;99.90
3275;DHT22;1649;53.672;10.064;2024-01-16T01:06:11;-0.50;99.90
3275;DHT22;1649;53.672;10.064;2024-01-16T01:08:37;-0.50;99.90
3275;DHT22;1649;53.672;10.064;2024-01-16T01:11:02;-0.50;99.90
3275;DHT22;1649;53.672;10.064;2024-01-16T01:13:28;-0.60;99.90
3275;DHT22;1649;53.672;10.064;2024-01-16T01:15:53;-0.60;99.90
3275;DHT22;1649;53.672;10.064;2024-01-16T01:18:19;-0.60;99.90
3275;DHT22;1649;53.672;10.064;2024-01-16T01:20:44;-0.60;99.90
3275;DHT22;1649;53.672;10.064;2024-01-16T01:23:10;-0.60;99.90
3275;DHT22;1649;53.672;10.064;2024-01-16T01:25:35;-0.60;99.90
3275;DHT22;1649;53.672;10.064;2024-01-16T01:28:01;-0.60;99.90
3275;DHT22;1649;53.672;10.064;2024-01-16T01:30:26;-0.70;99.90
3275;DHT22;1649;53.672;10.064;2024-01-16T01:32:52;-0.60;99.90
3275;DHT22;1649;53.672;10.064;2024-01-16T01:35:17;-0.60;99.90
3275;DHT22;1649;53.672;10.064;2024-01-16T01:37:45;-0.60;99.90
3275;DHT22;1649;53.672;10.064;2024-01-16T01:40:11;-0.60;99.90
3275;DHT22;1649;53.672;10.064;2024-01-16T01:42:38;-0.60;99.90
3275;DHT22;1649;53.672;10.064;2024-01-16T01:45:06;-0.60;99.90
3275;DHT22;1649;53.672;10.064;2024-01-16T01:47:32;-0.70;99.90
3275;DHT22;1649;53.672;10.064;2024-01-16T01:49:58;-0.70;99.90
3275;DHT22;1649;53.672;10.064;2024-01-16T01:52:24;-0.70;99.90
3275;DHT22;1649;53.672;10.064;2024-01-16T01:54:51;-0.70;99.90
3275;DHT22;1649;53.672;10.064;2024-01-16T01:57:17;-0.70;99.90
3275;DHT22;1649;53.672;10.064;2024-01-16T01:59:43;-0.70;99.90
3275;DHT22;1649;53.672;10.064;2024-01-16T02:02:10;-0.70;99.90
3275;DHT22;1649;53.672;10.064;2024-01-16T02:04:36;-0.60;99.90
3275;DHT22;1649;53.672;10.064;2024-01-16T02:07:04;-0.60;99.90
3275;DHT22;1649;53.672;10.064;2024-01-16T02:09:29;-0.50;99.90
3275;DHT22;1649;53.672;10.064;2024-01-16T02:11:55;-0.60;99.90
3275;DHT22;1649;53.672;10.064;2024-01-16T02:14:20;-0.70;99.90
3275;DHT22;1649;53.672;10.064;2024-01-16T02:16:46;-0.70;99.90
3275;DHT22;1649;53.672;10.064;2024-01-16T02:19:12;-0.80;99.90
3275;DHT22;1649;53.672;10.064;2024-01-16T02:21:39;-0.80;99.90
3275;DHT22;1649;53.672;10.064;2024-01-16T02:24:07;-0.80;99.90
3275;DHT22;1649;53.672;10.064;2024-01-16T02:26:33;-0.80;99.90
3275;DHT22;1649;53.672;10.064;2024-01-16T02:29:02;-0.90;99.90
3275;DHT22;1649;53.672;10.064;2024-01-16T02:31:30;-1.00;99.90
3275;DHT22;1649;53.672;10.064;2024-01-16T02:33:56;-1.10;99.90
3275;DHT22;1649;53.672;10.064;2024-01-16T02:36:21;-1.10;99.90
3275;DHT22;1649;53.672;10.064;2024-01-16T02:38:47;-1.30;99.90
3275;DHT22;1649;53.672;10.064;2024-01-16T02:41:16;-1.30;99.90
3275;DHT22;1649;53.672;10.064;2024-01-16T02:43:42;-1.40;99.90
3275;DHT22;1649;53.672;10.064;2024-01-16T02:46:07;-1.40;99.90
3275;DHT22;1649;53.672;10.064;2024-01-16T02:48:34;-1.50;99.90
3275;DHT22;1649;53.672;10.064;2024-01-16T02:51:00;-1.50;99.90
3275;DHT22;1649;53.672;10.064;2024-01-16T02:53:25;-1.50;99.90
3275;DHT22;1649;53.672;10.064;2024-01-16T02:55:52;-1.60;99.90
3275;DHT22;1649;53.672;10.064;2024-01-16T02:58:18;-1.50;99.90
3275;DHT22;1649;53.672;10.064;2024-01-16T03:00:43;-1.50;99.90
3275;DHT22;1649;53.672;10.064;2024-01-16T03:03:10;-1.50;99.90
3275;DHT22;1649;53.672;10.064;2024-01-16T03:05:36;-1.40;99.90
3275;DHT22;1649;53.672;10.064;2024-01-16T03:08:01;-1.40;99.90
3275;DHT22;1649;53.672;10.064;2024-01-16T03:10:27;-1.40;99.90
3275;DHT22;1649;53.672;10.064;2024-01-16T03:12:52;-1.50;99.90
3275;DHT22;1649;53.672;10.064;2024-01-16T03:15:18;-1.50;99.90
3275;DHT22;1649;53.672;10.064;2024-01-16T03:17:44;-1.50;99.90
3275;DHT22;1649;53.672;10.064;2024-01-16T03:20:09;-1.50;99.90
3275;DHT22;1649;53.672;10.064;2024-01-16T03:22:35;-1.50;99.90
3275;DHT22;1649;53.672;10.064;2024-01-16T03:25:01;-1.50;99.90
3275;DHT22;1649;53.672;10.064;2024-01-16T03:27:27;-1.50;99.90
3275;DHT22;1649;53.672;10.064;2024-01-16T03:29:53;-1.50;99.90
3275;DHT22;1649;53.672;10.064;2024-01-16T03:32:18;-1.50;99.90
3275;DHT22;1649;53.672;10.064;2024-01-16T03:34:44;-1.40;99.90
3275;DHT22;1649;53.672;10.064;2024-01-16T03:37:09;-1.40;99.90
3275;DHT22;1649;53.672;10.064;2024-01-16T03:39:35;-1.30;99.90
3275;DHT22;1649;53.672;10.064;2024-01-16T03:42:01;-1.30;99.90
3275;DHT22;1649;53.672;10.064;2024-01-16T03:44:27;-1.30;99.90
3275;DHT22;1649;53.672;10.064;2024-01-16T03:46:52;-1.30;99.90
3275;DHT22;1649;53.672;10.064;2024-01-16T03:49:17;-1.20;99.90
3275;DHT22;1649;53.672;10.064;2024-01-16T03:51:43;-1.30;99.90
3275;DHT22;1649;53.672;10.064;2024-01-16T03:54:12;-1.30;99.90
3275;DHT22;1649;53.672;10.064;2024-01-16T03:56:38;-1.30;99.90
3275;DHT22;1649;53.672;10.064;2024-01-16T03:59:04;-1.30;99.90
3275;DHT22;1649;53.672;10.064;2024-01-16T04:01:33;-1.30;99.90
3275;DHT22;1649;53.672;10.064;2024-01-16T04:03:58;-1.30;99.90
3275;DHT22;1649;53.672;10.064;2024-01-16T04:06:24;-1.30;99.90
3275;DHT22;1649;53.672;10.064;2024-01-16T04:08:50;-1.30;99.90
3275;DHT22;1649;53.672;10.064;2024-01-16T04:11:15;-1.30;99.90
3275;DHT22;1649;53.672;10.064;2024-01-16T04:13:41;-1.40;99.90
3275;DHT22;1649;53.672;10.064;2024-01-16T04:16:07;-1.40;99.90
3275;DHT22;1649;53.672;10.064;2024-01-16T04:18:36;-1.50;99.90
3275;DHT22;1649;53.672;10.064;2024-01-16T04:21:03;-1.60;99.90
3275;DHT22;1649;53.672;10.064;2024-01-16T04:23:28;-1.60;99.90
3275;DHT22;1649;53.672;10.064;2024-01-16T04:25:54;-1.70;99.90
3275;DHT22;1649;53.672;10.064;2024-01-16T04:28:19;-1.70;99.90
3275;DHT22;1649;53.672;10.064;2024-01-16T04:30:45;-1.70;99.90
3275;DHT22;1649;53.672;10.064;2024-01-16T04:33:10;-1.60;99.90
3275;DHT22;1649;53.672;10.064;2024-01-16T04:35:36;-1.60;99.90
3275;DHT22;1649;53.672;10.064;2024-01-16T04:38:01;-1.60;99.90
3275;DHT22;1649;53.672;10.064;2024-01-16T04:40:28;-1.50;99.90
3275;DHT22;1649;53.672;10.064;2024-01-16T04:42:54;-1.40;99.90
3275;DHT22;1649;53.672;10.064;2024-01-16T04:45:19;-1.40;99.90
3275;DHT22;1649;53.672;10.064;2024-01-16T04:47:44;-1.40;99.90
3275;DHT22;1649;53.672;10.064;2024-01-16T04:50:10;-1.40;99.90
3275;DHT22;1649;53.672;10.064;2024-01-16T04:52:35;-1.40;99.90
3275;DHT22;1649;53.672;10.064;2024-01-16T04:55:01;-1.40;99.90
3275;DHT22;1649;53.672;10.064;2024-01-16T04:57:27;-1.40;99.90
3275;DHT22;1649;53.672;10.064;2024-01-16T04:59:52;-1.30;99.90
3275;DHT22;1649;53.672;10.064;2024-01-16T05:02:18;-1.30;99.90
3275;DHT22;1649;53.672;10.064;2024-01-16T05:04:43;-1.30;99.90
3275;DHT22;1649;53.672;10.064;2024-01-16T05:07:09;-1.30;99.90
3275;DHT22;1649;53.672;10.064;2024-01-16T05:09:34;-1.30;99.90
3275;DHT22;1649;53.672;10.064;2024-01-16T05:12:00;-1.30;99.90
3275;DHT22;1649;53.672;10.064;2024-01-16T05:14:26;-1.40;99.90
3275;DHT22;1649;53.672;10.064;2024-01-16T05:16:52;-1.30;99.90
3275;DHT22;1649;53.672;10.064;2024-01-16T05:19:18;-1.30;99.90
3275;DHT22;1649;53.672;10.064;2024-01-16T05:21:43;-1.30;99.90
3275;DHT22;1649;53.672;10.064;2024-01-16T05:24:09;-1.30;99.90
3275;DHT22;1649;53.672;10.064;2024-01-16T05:26:34;-1.40;99.90
3275;DHT22;1649;53.672;10.064;2024-01-16T05:29:00;-1.30;99.90
3275;DHT22;1649;53.672;10.064;2024-01-16T05:31:26;-1.30;99.90
3275;DHT22;1649;53.672;10.064;2024-01-16T05:33:51;-1.30;99.90
3275;DHT22;1649;53.672;10.064;2024-01-16T05:36:17;-1.30;99.90
3275;DHT22;1649;53.672;10.064;2024-01-16T05:38:42;-1.30;99.90
3275;DHT22;1649;53.672;10.064;2024-01-16T05:41:09;-1.20;99.90
3275;DHT22;1649;53.672;10.064;2024-01-16T05:43:34;-1.20;99.90
3275;DHT22;1649;53.672;10.064;2024-01-16T05:46:00;-1.20;99.90
3275;DHT22;1649;53.672;10.064;2024-01-16T05:48:26;-1.20;99.90
3275;DHT22;1649;53.672;10.064;2024-01-16T05:50:51;-1.20;99.90
3275;DHT22;1649;53.672;10.064;2024-01-16T05:53:17;-1.10;99.90
3275;DHT22;1649;53.672;10.064;2024-01-16T05:55:42;-1.10;99.90
3275;DHT22;1649;53.672;10.064;2024-01-16T05:58:08;-1.10;99.90
3275;DHT22;1649;53.672;10.064;2024-01-16T06:00:33;-1.10;99.90
3275;DHT22;1649;53.672;10.064;2024-01-16T06:02:59;-1.00;99.90
3275;DHT22;1649;53.672;10.064;2024-01-16T06:05:25;-1.00;99.90
3275;DHT22;1649;53.672;10.064;2024-01-16T06:07:50;-1.00;99.90
3275;DHT22;1649;53.672;10.064;2024-01-16T06:10:16;-1.00;99.90
3275;DHT22;1649;53.672;10.064;2024-01-16T06:12:42;-1.00;99.90
3275;DHT22;1649;53.672;10.064;2024-01-16T06:15:08;-1.00;99.90
3275;DHT22;1649;53.672;10.064;2024-01-16T06:17:34;-1.00;99.90
3275;DHT22;1649;53.672;10.064;2024-01-16T06:20:00;-1.00;99.90
3275;DHT22;1649;53.672;10.064;2024-01-16T06:22:25;-1.00;99.90
3275;DHT22;1649;53.672;10.064;2024-01-16T06:24:51;-1.00;99.90
3275;DHT22;1649;53.672;10.064;2024-01-16T06:27:16;-1.00;99.90
3275;DHT22;1649;53.672;10.064;2024-01-16T06:29:48;-1.00;99.90
3275;DHT22;1649;53.672;10.064;2024-01-16T06:32:14;-0.90;99.90
3275;DHT22;1649;53.672;10.064;2024-01-16T06:34:39;-0.90;99.90
3275;DHT22;1649;53.672;10.064;2024-01-16T06:37:05;-0.90;99.90
3275;DHT22;1649;53.672;10.064;2024-01-16T06:39:30;-0.90;99.90
3275;DHT22;1649;53.672;10.064;2024-01-16T06:41:56;-0.80;99.90
3275;DHT22;1649;53.672;10.064;2024-01-16T06:44:21;-0.80;99.90
3275;DHT22;1649;53.672;10.064;2024-01-16T06:46:47;-0.80;99.90
3275;DHT22;1649;53.672;10.064;2024-01-16T06:49:13;-0.80;99.90
3275;DHT22;1649;53.672;10.064;2024-01-16T06:51:38;-0.70;99.90
3275;DHT22;1649;53.672;10.064;2024-01-16T06:54:04;-0.70;99.90
3275;DHT22;1649;53.672;10.064;2024-01-16T06:56:30;-0.70;99.90
3275;DHT22;1649;53.672;10.064;2024-01-16T06:58:55;-0.70;99.90
3275;DHT22;1649;53.672;10.064;2024-01-16T07:01:21;-0.70;99.90
3275;DHT22;1649;53.672;10.064;2024-01-16T07:03:46;-0.70;99.90
3275;DHT22;1649;53.672;10.064;2024-01-16T07:06:12;-0.70;99.90
3275;DHT22;1649;53.672;10.064;2024-01-16T07:08:37;-0.80;99.90
3275;DHT22;1649;53.672;10.064;2024-01-16T07:11:03;-0.80;99.90
3275;DHT22;1649;53.672;10.064;2024-01-16T07:13:33;-0.70;99.90
3275;DHT22;1649;53.672;10.064;2024-01-16T07:15:58;-0.70;99.90
3275;DHT22;1649;53.672;10.064;2024-01-16T07:18:24;-0.70;99.90
3275;DHT22;1649;53.672;10.064;2024-01-16T07:20:49;-0.70;99.90
3275;DHT22;1649;53.672;10.064;2024-01-16T07:23:15;-0.70;99.90
3275;DHT22;1649;53.672;10.064;2024-01-16T07:25:40;-0.70;99.90
3275;DHT22;1649;53.672;10.064;2024-01-16T07:28:06;-0.70;99.90
3275;DHT22;1649;53.672;10.064;2024-01-16T07:30:31;-0.60;99.90
3275;DHT22;1649;53.672;10.064;2024-01-16T07:32:57;-0.60;99.90
3275;DHT22;1649;53.672;10.064;2024-01-16T07:35:22;-0.60;99.90
3275;DHT22;1649;53.672;10.064;2024-01-16T07:37:48;-0.60;99.90
3275;DHT22;1649;53.672;10.064;2024-01-16T07:40:13;-0.60;99.90
3275;DHT22;1649;53.672;10.064;2024-01-16T07:42:42;-0.60;99.90
3275;DHT22;1649;53.672;10.064;2024-01-16T07:45:08;-0.60;99.90
3275;DHT22;1649;53.672;10.064;2024-01-16T07:47:33;-0.60;99.90
3275;DHT22;1649;53.672;10.064;2024-01-16T07:50:00;-0.50;99.90
3275;DHT22;1649;53.672;10.064;2024-01-16T07:52:27;-0.60;99.90
3275;DHT22;1649;53.672;10.064;2024-01-16T07:54:53;-0.50;99.90
3275;DHT22;1649;53.672;10.064;2024-01-16T07:57:18;-0.50;99.90
3275;DHT22;1649;53.672;10.064;2024-01-16T07:59:44;-0.60;99.90
3275;DHT22;1649;53.672;10.064;2024-01-16T08:02:09;-0.60;99.90
3275;DHT22;1649;53.672;10.064;2024-01-16T08:04:35;-0.60;99.90
3275;DHT22;1649;53.672;10.064;2024-01-16T08:07:01;-0.50;99.90
3275;DHT22;1649;53.672;10.064;2024-01-16T08:09:26;-0.50;99.90
3275;DHT22;1649;53.672;10.064;2024-01-16T08:11:52;-0.50;99.90
3275;DHT22;1649;53.672;10.064;2024-01-16T08:14:17;-0.50;99.90
3275;DHT22;1649;53.672;10.064;2024-01-16T08:16:43;-0.50;99.90
3275;DHT22;1649;53.672;10.064;2024-01-16T08:19:08;-0.50;99.90
3275;DHT22;1649;53.672;10.064;2024-01-16T08:21:34;-0.50;99.90
3275;DHT22;1649;53.672;10.064;2024-01-16T08:23:59;-0.40;99.90
3275;DHT22;1649;53.672;10.064;2024-01-16T08:26:25;-0.40;99.90
3275;DHT22;1649;53.672;10.064;2024-01-16T08:28:51;-0.40;99.90
3275;DHT22;1649;53.672;10.064;2024-01-16T08:31:17;-0.30;99.90
3275;DHT22;1649;53.672;10.064;2024-01-16T08:33:46;-0.30;99.90
3275;DHT22;1649;53.672;10.064;2024-01-16T08:36:12;-0.20;99.90
3275;DHT22;1649;53.672;10.064;2024-01-16T08:38:38;-0.30;99.90
3275;DHT22;1649;53.672;10.064;2024-01-16T08:41:03;-0.20;99.90
3275;DHT22;1649;53.672;10.064;2024-01-16T08:43:33;-0.20;99.90
3275;DHT22;1649;53.672;10.064;2024-01-16T08:45:58;-0.20;99.90
3275;DHT22;1649;53.672;10.064;2024-01-16T08:48:24;-0.20;99.90
3275;DHT22;1649;53.672;10.064;2024-01-16T08:50:49;-0.10;99.90
3275;DHT22;1649;53.672;10.064;2024-01-16T08:53:15;-0.10;99.90
3275;DHT22;1649;53.672;10.064;2024-01-16T08:55:40;-0.10;99.90
3275;DHT22;1649;53.672;10.064;2024-01-16T08:58:06;-0.10;99.90
3275;DHT22;1649;53.672;10.064;2024-01-16T09:00:31;-0.10;99.90
3275;DHT22;1649;53.672;10.064;2024-01-16T09:02:58;0.00;99.90
3275;DHT22;1649;53.672;10.064;2024-01-16T09:05:24;0.00;99.90
3275;DHT22;1649;53.672;10.064;2024-01-16T09:07:51;0.00;99.90
3275;DHT22;1649;53.672;10.064;2024-01-16T09:10:18;-0.10;99.90
3275;DHT22;1649;53.672;10.064;2024-01-16T09:12:43;-0.10;99.90
3275;DHT22;1649;53.672;10.064;2024-01-16T09:15:09;-0.10;99.90
3275;DHT22;1649;53.672;10.064;2024-01-16T09:17:35;0.00;99.90
3275;DHT22;1649;53.672;10.064;2024-01-16T09:20:00;-0.10;99.90
3275;DHT22;1649;53.672;10.064;2024-01-16T09:22:26;-0.10;99.90
3275;DHT22;1649;53.672;10.064;2024-01-16T09:24:52;0.00;99.90
3275;DHT22;1649;53.672;10.064;2024-01-16T09:27:17;0.00;99.90
3275;DHT22;1649;53.672;10.064;2024-01-16T09:29:43;0.00;99.90
3275;DHT22;1649;53.672;10.064;2024-01-16T09:32:08;0.00;99.90
3275;DHT22;1649;53.672;10.064;2024-01-16T09:34:34;0.00;99.90
3275;DHT22;1649;53.672;10.064;2024-01-16T09:37:00;-0.10;99.90
3275;DHT22;1649;53.672;10.064;2024-01-16T09:39:28;0.00;99.90
3275;DHT22;1649;53.672;10.064;2024-01-16T09:41:56;0.00;99.90
3275;DHT22;1649;53.672;10.064;2024-01-16T09:44:23;0.00;99.90
3275;DHT22;1649;53.672;10.064;2024-01-16T09:46:50;0.00;99.90
3275;DHT22;1649;53.672;10.064;2024-01-16T09:49:17;0.10;99.90
3275;DHT22;1649;53.672;10.064;2024-01-16T09:51:43;0.20;99.90
3275;DHT22;1649;53.672;10.064;2024-01-16T09:54:09;0.20;99.90
3275;DHT22;1649;53.672;10.064;2024-01-16T09:56:35;0.20;99.90
3275;DHT22;1649;53.672;10.064;2024-01-16T09:59:06;0.20;99.90
3275;DHT22;1649;53.672;10.064;2024-01-16T10:01:34;0.20;99.90
3275;DHT22;1649;53.672;10.064;2024-01-16T10:04:00;0.30;99.90
3275;DHT22;1649;53.672;10.064;2024-01-16T10:06:27;0.30;99.90
3275;DHT22;1649;53.672;10.064;2024-01-16T10:08:55;0.40;99.90
3275;DHT22;1649;53.672;10.064;2024-01-16T10:11:20;0.40;99.90
3275;DHT22;1649;53.672;10.064;2024-01-16T10:13:46;0.50;99.90
3275;DHT22;1649;53.672;10.064;2024-01-16T10:16:11;0.50;99.90
3275;DHT22;1649;53.672;10.064;2024-01-16T10:18:37;0.50;99.90
3275;DHT22;1649;53.672;10.064;2024-01-16T10:21:03;0.50;99.90
3275;DHT22;1649;53.672;10.064;2024-01-16T10:23:30;0.40;99.90
3275;DHT22;1649;53.672;10.064;2024-01-16T10:26:13;0.40;99.90
3275;DHT22;1649;53.672;10.064;2024-01-16T10:28:43;0.30;99.90
3275;DHT22;1649;53.672;10.064;2024-01-16T10:31:10;0.40;99.90
3275;DHT22;1649;53.672;10.064;2024-01-16T10:33:36;0.40;99.90
3275;DHT22;1649;53.672;10.064;2024-01-16T10:36:15;0.40;99.90
3275;DHT22;1649;53.672;10.064;2024-01-16T10:38:46;0.40;99.90
3275;DHT22;1649;53.672;10.064;2024-01-16T10:41:16;0.50;99.90
3275;DHT22;1649;53.672;10.064;2024-01-16T10:43:43;0.50;99.90
3275;DHT22;1649;53.672;10.064;2024-01-16T10:46:13;0.60;99.90
3275;DHT22;1649;53.672;10.064;2024-01-16T10:48:44;0.60;99.90
3275;DHT22;1649;53.672;10.064;2024-01-16T10:51:16;0.60;99.90
3275;DHT22;1649;53.672;10.064;2024-01-16T10:53:43;0.60;99.90
3275;DHT22;1649;53.672;10.064;2024-01-16T10:56:12;0.60;99.90
3275;DHT22;1649;53.672;10.064;2024-01-16T10:58:40;0.60;99.90
3275;DHT22;1649;53.672;10.064;2024-01-16T11:01:10;0.60;99.90
3275;DHT22;1649;53.672;10.064;2024-01-16T11:03:48;0.60;99.90
3275;DHT22;1649;53.672;10.064;2024-01-16T11:06:15;0.60;99.90
3275;DHT22;1649;53.672;10.064;2024-01-16T11:08:42;0.70;99.90
3275;DHT22;1649;53.672;10.064;2024-01-16T11:11:08;0.60;99.90
3275;DHT22;1649;53.672;10.064;2024-01-16T11:13:35;0.60;99.90
3275;DHT22;1649;53.672;10.064;2024-01-16T11:16:04;0.70;99.90
3275;DHT22;1649;53.672;10.064;2024-01-16T11:18:31;0.70;99.90
3275;DHT22;1649;53.672;10.064;2024-01-16T11:21:12;0.70;99.90
3275;DHT22;1649;53.672;10.064;2024-01-16T11:23:38;0.80;99.90
3275;DHT22;1649;53.672;10.064;2024-01-16T11:28:53;0.90;99.90
3275;DHT22;1649;53.672;10.064;2024-01-16T11:31:34;0.90;99.90
3275;DHT22;1649;53.672;10.064;2024-01-16T11:34:03;0.90;99.90
3275;DHT22;1649;53.672;10.064;2024-01-16T11:36:50;0.90;99.90
3275;DHT22;1649;53.672;10.064;2024-01-16T11:39:20;0.90;99.90
3275;DHT22;1649;53.672;10.064;2024-01-16T11:41:55;1.00;99.90
3275;DHT22;1649;53.672;10.064;2024-01-16T11:44:47;1.00;99.90
3275;DHT22;1649;53.672;10.064;2024-01-16T11:47:22;1.10;99.90
3275;DHT22;1649;53.672;10.064;2024-01-16T11:49:49;1.10;99.90
3275;DHT22;1649;53.672;10.064;2024-01-16T11:52:15;1.10;99.90
3275;DHT22;1649;53.672;10.064;2024-01-16T11:55:00;1.10;99.90
3275;DHT22;1649;53.672;10.064;2024-01-16T11:57:45;1.10;99.90
3275;DHT22;1649;53.672;10.064;2024-01-16T12:00:19;1.10;99.90
3275;DHT22;1649;53.672;10.064;2024-01-16T12:02:52;1.10;99.90
3275;DHT22;1649;53.672;10.064;2024-01-16T12:05:19;1.10;99.90
3275;DHT22;1649;53.672;10.064;2024-01-16T12:07:46;1.10;99.90
3275;DHT22;1649;53.672;10.064;2024-01-16T12:10:15;1.10;99.90
3275;DHT22;1649;53.672;10.064;2024-01-16T12:12:41;1.10;99.90
3275;DHT22;1649;53.672;10.064;2024-01-16T12:15:06;1.10;99.90
3275;DHT22;1649;53.672;10.064;2024-01-16T12:17:37;1.10;99.90
3275;DHT22;1649;53.672;10.064;2024-01-16T12:20:16;1.10;99.90
3275;DHT22;1649;53.672;10.064;2024-01-16T12:22:41;1.10;99.90
3275;DHT22;1649;53.672;10.064;2024-01-16T12:25:07;1.10;99.90
3275;DHT22;1649;53.672;10.064;2024-01-16T12:27:34;1.10;99.90
3275;DHT22;1649;53.672;10.064;2024-01-16T12:30:10;1.10;99.90
3275;DHT22;1649;53.672;10.064;2024-01-16T12:32:36;1.20;99.90
3275;DHT22;1649;53.672;10.064;2024-01-16T12:35:01;1.30;99.90
3275;DHT22;1649;53.672;10.064;2024-01-16T12:37:28;1.30;99.90
3275;DHT22;1649;53.672;10.064;2024-01-16T12:39:54;1.30;99.90
3275;DHT22;1649;53.672;10.064;2024-01-16T12:42:22;1.40;99.90
3275;DHT22;1649;53.672;10.064;2024-01-16T12:44:50;1.40;99.90
3275;DHT22;1649;53.672;10.064;2024-01-16T12:47:16;1.30;99.90
3275;DHT22;1649;53.672;10.064;2024-01-16T12:49:42;1.30;99.90
3275;DHT22;1649;53.672;10.064;2024-01-16T12:52:17;1.20;99.90
3275;DHT22;1649;53.672;10.064;2024-01-16T12:54:53;1.20;99.90
3275;DHT22;1649;53.672;10.064;2024-01-16T12:57:23;1.20;99.90
3275;DHT22;1649;53.672;10.064;2024-01-16T12:59:48;1.20;99.90
3275;DHT22;1649;53.672;10.064;2024-01-16T13:02:21;1.20;99.90
3275;DHT22;1649;53.672;10.064;2024-01-16T13:04:47;1.10;99.90
3275;DHT22;1649;53.672;10.064;2024-01-16T13:07:16;1.10;99.90
3275;DHT22;1649;53.672;10.064;2024-01-16T13:09:43;1.10;99.90
3275;DHT22;1649;53.672;10.064;2024-01-16T13:12:09;1.10;99.90
3275;DHT22;1649;53.672;10.064;2024-01-16T13:14:34;1.10;99.90
3275;DHT22;1649;53.672;10.064;2024-01-16T13:17:00;1.00;99.90
3275;DHT22;1649;53.672;10.064;2024-01-16T13:19:26;1.00;99.90
3275;DHT22;1649;53.672;10.064;2024-01-16T13:21:54;1.00;99.90
3275;DHT22;1649;53.672;10.064;2024-01-16T13:24:19;1.00;99.90
3275;DHT22;1649;53.672;10.064;2024-01-16T13:26:49;1.00;99.90
3275;DHT22;1649;53.672;10.064;2024-01-16T13:29:14;1.00;99.90
3275;DHT22;1649;53.672;10.064;2024-01-16T13:31:40;1.10;99.90
3275;DHT22;1649;53.672;10.064;2024-01-16T13:34:06;1.10;99.90
3275;DHT22;1649;53.672;10.064;2024-01-16T13:36:32;1.10;99.90
3275;DHT22;1649;53.672;10.064;2024-01-16T13:38:58;1.20;99.90
3275;DHT22;1649;53.672;10.064;2024-01-16T13:41:24;1.20;99.90
3275;DHT22;1649;53.672;10.064;2024-01-16T13:43:50;1.20;99.90
3275;DHT22;1649;53.672;10.064;2024-01-16T13:46:15;1.20;99.90
3275;DHT22;1649;53.672;10.064;2024-01-16T13:48:43;1.20;99.90
3275;DHT22;1649;53.672;10.064;2024-01-16T13:51:08;1.10;99.90
3275;DHT22;1649;53.672;10.064;2024-01-16T13:53:34;1.10;99.90
3275;DHT22;1649;53.672;10.064;2024-01-16T13:56:00;1.10;99.90
3275;DHT22;1649;53.672;10.064;2024-01-16T13:58:26;1.00;99.90
3275;DHT22;1649;53.672;10.064;2024-01-16T14:00:51;1.00;99.90
3275;DHT22;1649;53.672;10.064;2024-01-16T14:03:17;0.90;99.90
3275;DHT22;1649;53.672;10.064;2024-01-16T14:05:42;0.90;99.90
3275;DHT22;1649;53.672;10.064;2024-01-16T14:08:08;0.90;99.90
3275;DHT22;1649;53.672;10.064;2024-01-16T14:10:37;0.80;99.90
3275;DHT22;1649;53.672;10.064;2024-01-16T14:13:02;0.90;99.90
3275;DHT22;1649;53.672;10.064;2024-01-16T14:15:30;0.80;99.90
3275;DHT22;1649;53.672;10.064;2024-01-16T14:17:56;0.80;99.90
3275;DHT22;1649;53.672;10.064;2024-01-16T14:20:23;0.80;99.90
3275;DHT22;1649;53.672;10.064;2024-01-16T14:22:50;0.80;99.90
3275;DHT22;1649;53.672;10.064;2024-01-16T14:25:17;0.80;99.90
3275;DHT22;1649;53.672;10.064;2024-01-16T14:27:48;0.80;99.90
3275;DHT22;1649;53.672;10.064;2024-01-16T14:30:15;0.80;99.90
3275;DHT22;1649;53.672;10.064;2024-01-16T14:32:44;0.80;99.90
3275;DHT22;1649;53.672;10.064;2024-01-16T14:35:11;0.80;99.90
3275;DHT22;1649;53.672;10.064;2024-01-16T14:37:37;0.70;99.90
3275;DHT22;1649;53.672;10.064;2024-01-16T14:40:04;0.70;99.90
3275;DHT22;1649;53.672;10.064;2024-01-16T14:42:45;0.70;99.90
3275;DHT22;1649;53.672;10.064;2024-01-16T14:45:13;0.70;99.90
3275;DHT22;1649;53.672;10.064;2024-01-16T14:47:39;0.70;99.90
3275;DHT22;1649;53.672;10.064;2024-01-16T14:50:05;0.70;99.90
3275;DHT22;1649;53.672;10.064;2024-01-16T14:52:31;0.70;99.90
3275;DHT22;1649;53.672;10.064;2024-01-16T14:55:01;0.70;99.90
3275;DHT22;1649;53.672;10.064;2024-01-16T14:57:26;0.70;99.90
3275;DHT22;1649;53.672;10.064;2024-01-16T14:59:53;0.70;99.90
3275;DHT22;1649;53.672;10.064;2024-01-16T15:02:18;0.70;99.90
3275;DHT22;1649;53.672;10.064;2024-01-16T15:04:46;0.70;99.90
3275;DHT22;1649;53.672;10.064;2024-01-16T15:07:11;0.70;99.90
3275;DHT22;1649;53.672;10.064;2024-01-16T15:09:37;0.70;99.90
3275;DHT22;1649;53.672;10.064;2024-01-16T15:12:06;0.70;99.90
3275;DHT22;1649;53.672;10.064;2024-01-16T15:14:33;0.70;99.90
3275;DHT22;1649;53.672;10.064;2024-01-16T15:16:59;0.70;99.90
3275;DHT22;1649;53.672;10.064;2024-01-16T15:19:24;0.60;99.90
3275;DHT22;1649;53.672;10.064;2024-01-16T15:21:50;0.60;99.90
3275;DHT22;1649;53.672;10.064;2024-01-16T15:24:16;0.60;99.90
3275;DHT22;1649;53.672;10.064;2024-01-16T15:26:47;0.60;99.90
3275;DHT22;1649;53.672;10.064;2024-01-16T15:29:12;0.60;99.90
3275;DHT22;1649;53.672;10.064;2024-01-16T15:31:38;0.60;99.90
3275;DHT22;1649;53.672;10.064;2024-01-16T15:34:03;0.60;99.90
3275;DHT22;1649;53.672;10.064;2024-01-16T15:36:29;0.60;99.90
3275;DHT22;1649;53.672;10.064;2024-01-16T15:38:55;0.60;99.90
3275;DHT22;1649;53.672;10.064;2024-01-16T15:41:20;0.60;99.90
3275;DHT22;1649;53.672;10.064;2024-01-16T15:43:46;0.60;99.90
3275;DHT22;1649;53.672;10.064;2024-01-16T15:46:11;0.60;99.90
3275;DHT22;1649;53.672;10.064;2024-01-16T15:48:37;0.60;99.90
3275;DHT22;1649;53.672;10.064;2024-01-16T15:51:03;0.60;99.90